sensor_id;sensor_type;location;lat;lon;timestamp;pressure;altitude;pressure_sealevel;temperature;humidity
71642;BME280;60657;50.122;14.468;2023-12-07T00:03:11;98375.03756074372;;;2.5024795910582114;80.84672312504769
71642;BME280;60657;50.122;14.468;2023-12-07T00:06:27;98378.41977127732;;;2.5532158388647304;80.95544365606165
71642;BME280;60657;50.122;14.468;2023-12-07T00:09:42;98383.94729236233;;;2.734798199435417;80.46334019989318
71642;BME280;60657;50.122;14.468;2023-12-07T00:12:59;98381.52936539776;;;2.713435568780042;79.94262607766842
71642;BME280;60657;50.122;14.468;2023-12-07T00:16:14;98394.27741382722;;;2.63866636148623;80.53009842069123
71642;BME280;60657;50.122;14.468;2023-12-07T00:19:30;98379.7748268748;;;2.6707103074692924;80.7856870374609
71642;BME280;60657;50.122;14.468;2023-12-07T00:22:46;98381.44380087478;;;2.710765239948117;80.7570763714046
71642;BME280;60657;50.122;14.468;2023-12-07T00:26:02;98386.45082043116;;;2.7321278706034917;80.53200579842832
71642;BME280;60657;50.122;14.468;2023-12-07T00:29:19;98392.6954332685;;;2.5852597848477927;80.69985503929198
71642;BME280;60657;50.122;14.468;2023-12-07T00:32:39;98401.82523557359;;;2.4757763027389927;81.42084382391089
71642;BME280;60657;50.122;14.468;2023-12-07T00:35:55;98392.16662089298;;;2.4757763027389927;81.39795529106584
71642;BME280;60657;50.122;14.468;2023-12-07T00:39:12;98402.44889841047;;;2.587930113679711;81.10803387502861
71642;BME280;60657;50.122;14.468;2023-12-07T00:42:28;98394.18980283262;;;2.563897154192418;81.53337911039903
71642;BME280;60657;50.122;14.468;2023-12-07T00:45:43;98400.86727144709;;;2.566567483024336;81.32166018158236
71642;BME280;60657;50.122;14.468;2023-12-07T00:48:59;98391.28625255161;;;2.6920729381246673;81.02029449912261
71642;BME280;60657;50.122;14.468;2023-12-07T00:52:17;98385.35787950006;;;2.6413366903181483;80.7570763714046
71642;BME280;60657;50.122;14.468;2023-12-07T00:55:33;98399.41605316731;;;2.676050965133136;80.75135423819333
71642;BME280;60657;50.122;14.468;2023-12-07T00:58:49;98407.89245618944;;;2.7882047760738544;80.38132295719845
71642;BME280;60657;50.122;14.468;2023-12-07T01:02:06;98407.14384727467;;;2.8416113527122917;80.02082856488899
71642;BME280;60657;50.122;14.468;2023-12-07T01:05:22;98410.31015786923;;;2.8042267490653856;80.23445487144274
71642;BME280;60657;50.122;14.468;2023-12-07T01:08:38;98404.72569576163;;;2.881666285191116;80.12764171816586
71642;BME280;60657;50.122;14.468;2023-12-07T01:11:53;98417.15992591792;;;2.878995956359198;80.25734340428778
71642;BME280;60657;50.122;14.468;2023-12-07T01:15:09;98418.54463583839;;;3.071259632257572;79.79957274738689
71642;BME280;60657;50.122;14.468;2023-12-07T01:18:25;98421.29746344555;;;3.151369497215228;79.33798733501183
71642;BME280;60657;50.122;14.468;2023-12-07T01:21:41;98412.15882736738;;;3.092622262912947;79.07095445181965
71642;BME280;60657;50.122;14.468;2023-12-07T01:24:57;98407.27539968656;;;3.1460288395513842;78.92599374380102
71642;BME280;60657;50.122;14.468;2023-12-07T01:28:13;98414.57973528278;;;3.138017853055622;78.74670023651484
71642;BME280;60657;50.122;14.468;2023-12-07T01:31:29;98414.66237434381;;;3.180743114366372;78.6780346379797
71642;BME280;60657;50.122;14.468;2023-12-07T01:34:45;98422.00791438537;;;3.1460288395513842;78.64560921644923
71642;BME280;60657;50.122;14.468;2023-12-07T01:38:03;98412.99333897598;;;3.1540398260471534;78.61890592813
71642;BME280;60657;50.122;14.468;2023-12-07T01:41:18;98408.27342053154;;;3.218127718013278;78.58838788433661
71642;BME280;60657;50.122;14.468;2023-12-07T01:44:34;98408.19180650261;;;3.1700617990386846;78.56359197375448
71642;BME280;60657;50.122;14.468;2023-12-07T01:47:51;98415.57919174794;;;3.130006866559853;78.74670023651484
71642;BME280;60657;50.122;14.468;2023-12-07T01:51:09;98421.25616672875;;;3.159380483710997;78.86495765621423
71642;BME280;60657;50.122;14.468;2023-12-07T01:54:26;98425.51149904702;;;3.1780727855344466;79.02517738612956
71642;BME280;60657;50.122;14.468;2023-12-07T01:57:43;98418.95825451339;;;3.223468375677122;78.87640192263676
71642;BME280;60657;50.122;14.468;2023-12-07T02:01:00;98422.92531509118;;;3.194094758525978;79.16060120546273
71642;BME280;60657;50.122;14.468;2023-12-07T02:04:17;98422.96659580554;;;3.2207980468451964;79.33798733501183
71642;BME280;60657;50.122;14.468;2023-12-07T02:07:33;98427.01552836105;;;3.194094758525978;79.42000457770656
71642;BME280;60657;50.122;14.468;2023-12-07T02:10:49;98436.86513239432;;;3.151369497215228;79.6221866178378
71642;BME280;60657;50.122;14.468;2023-12-07T02:14:05;98434.36106539083;;;3.159380483710997;79.64888990615701
71642;BME280;60657;50.122;14.468;2023-12-07T02:17:24;98443.24949266187;;;3.108644235904478;79.87968261234455
71642;BME280;60657;50.122;14.468;2023-12-07T02:20:49;98445.62698528287;;;3.0659189745937283;79.85297932402533
71642;BME280;60657;50.122;14.468;2023-12-07T02:24:14;98441.32520152397;;;3.071259632257572;80.39085984588388
71642;BME280;60657;50.122;14.468;2023-12-07T02:27:38;98448.49509809107;;;2.991149767299916;80.36797131303884
71642;BME280;60657;50.122;14.468;2023-12-07T02:30:55;98439.78334756928;;;3.0819409475852595;80.16388189517052
71642;BME280;60657;50.122;14.468;2023-12-07T02:34:11;98431.6051847085;;;3.0739299610894975;80.3736934462501
71642;BME280;60657;50.122;14.468;2023-12-07T02:37:28;98442.95212865826;;;3.0312046997787476;80.35271229114214
71642;BME280;60657;50.122;14.468;2023-12-07T02:40:49;98449.71621813475;;;3.092622262912947;80.1505302510109
71642;BME280;60657;50.122;14.468;2023-12-07T02:44:08;98448.79610341911;;;3.047226672770279;80.21538109407187
71642;BME280;60657;50.122;14.468;2023-12-07T02:47:24;98459.21952185126;;;2.983138780804147;80.49576562142367
71642;BME280;60657;50.122;14.468;2023-12-07T02:50:40;98456.88770446657;;;3.0579079880979663;80.27641718165866
71642;BME280;60657;50.122;14.468;2023-12-07T02:53:56;98451.21518263026;;;3.0605783169298846;80.14862287327382
71642;BME280;60657;50.122;14.468;2023-12-07T02:57:12;98446.46180688715;;;3.0739299610894975;80.1657892729076
71642;BME280;60657;50.122;14.468;2023-12-07T03:00:28;98456.22463079772;;;3.071259632257572;80.23826962691692
71642;BME280;60657;50.122;14.468;2023-12-07T03:03:43;98460.56968630907;;;3.1700617990386846;80.02464332036317
71642;BME280;60657;50.122;14.468;2023-12-07T03:06:59;98459.60707644731;;;3.0605783169298846;79.95407034409094
71642;BME280;60657;50.122;14.468;2023-12-07T03:10:15;98475.2147294317;;;3.1406881818875405;79.95407034409094
71642;BME280;60657;50.122;14.468;2023-12-07T03:13:31;98469.66906362852;;;3.2207980468451964;79.87777523460745
71642;BME280;60657;50.122;14.468;2023-12-07T03:16:47;98472.04615132199;;;3.1834134431982903;79.84916456855116
71642;BME280;60657;50.122;14.468;2023-12-07T03:20:03;98477.09890244211;;;3.223468375677122;79.61646448462653
71642;BME280;60657;50.122;14.468;2023-12-07T03:23:19;98482.0238241832;;;3.2047760738536653;79.62409399557488
71642;BME280;60657;50.122;14.468;2023-12-07T03:26:36;98486.28438422343;;;3.2955672541390086;79.64888990615701
71642;BME280;60657;50.122;14.468;2023-12-07T03:29:52;98487.86935617276;;;3.2421606775005714;79.36469062333104
71642;BME280;60657;50.122;14.468;2023-12-07T03:33:08;98483.9487124077;;;3.3222705424582273;79.36087586785688
71642;BME280;60657;50.122;14.468;2023-12-07T03:36:24;98489.96193045742;;;3.4130617227435707;79.13771267261768
71642;BME280;60657;50.122;14.468;2023-12-07T03:39:40;98490.4172462477;;;3.282215609979403;79.34561684596018
71642;BME280;60657;50.122;14.468;2023-12-07T03:42:56;98500.26815427613;;;3.3142595559624652;79.52681773098344
71642;BME280;60657;50.122;14.468;2023-12-07T03:46:12;98502.81642566151;;;3.306248569466696;79.45242999923705
71642;BME280;60657;50.122;14.468;2023-12-07T03:49:27;98495.63941565705;;;3.4264133669031835;79.31319142442969
71642;BME280;60657;50.122;14.468;2023-12-07T03:52:43;98505.23648996119;;;3.276874952315559;79.36278324559396
71642;BME280;60657;50.122;14.468;2023-12-07T03:55:59;98502.98651531935;;;3.3836881055924337;79.37232013427939
71642;BME280;60657;50.122;14.468;2023-12-07T03:59:15;98512.66784240752;;;3.3009079118028524;79.40856031128405
71642;BME280;60657;50.122;14.468;2023-12-07T04:02:32;98508.57735124728;;;3.3142595559624652;79.43526359960326
71642;BME280;60657;50.122;14.468;2023-12-07T04:05:48;98518.42886532596;;;3.2955672541390086;79.10910200656139
71642;BME280;60657;50.122;14.468;2023-12-07T04:09:03;98524.18998126301;;;3.3089188982986215;79.42000457770656
71642;BME280;60657;50.122;14.468;2023-12-07T04:12:19;98518.385794762;;;3.26886396581979;79.61455710688945
71642;BME280;60657;50.122;14.468;2023-12-07T04:15:35;98521.98407054433;;;3.407721065079727;79.14152742809186
71642;BME280;60657;50.122;14.468;2023-12-07T04:18:51;98527.70317223984;;;3.386358434424352;79.00801098649576
71642;BME280;60657;50.122;14.468;2023-12-07T04:22:07;98533.5932781198;;;3.407721065079727;78.86495765621423
71642;BME280;60657;50.122;14.468;2023-12-07T04:25:22;98537.46988873139;;;3.3516441596093713;79.05378805218585
71642;BME280;60657;50.122;14.468;2023-12-07T04:28:38;98529.9511902194;;;3.3222705424582273;78.95269703212024
71642;BME280;60657;50.122;14.468;2023-12-07T04:31:54;98538.26211198559;;;3.386358434424352;79.19874876020447
71642;BME280;60657;50.122;14.468;2023-12-07T04:35:10;98542.22229336073;;;3.290226596475165;79.22735942626078
71642;BME280;60657;50.122;14.468;2023-12-07T04:38:26;98532.37077625714;;;3.2742046234836337;79.09002822919051
71642;BME280;60657;50.122;14.468;2023-12-07T04:41:42;98550.04908854899;;;3.194094758525978;79.4886701762417
71642;BME280;60657;50.122;14.468;2023-12-07T04:44:58;98545.38931670361;;;3.239490348668653;79.22545204852369
71642;BME280;60657;50.122;14.468;2023-12-07T04:48:14;98542.22229336073;;;3.276874952315559;79.19111924925612
71642;BME280;60657;50.122;14.468;2023-12-07T04:51:30;98556.07588818381;;;3.2635233081559463;79.30746929121844
71642;BME280;60657;50.122;14.468;2023-12-07T04:54:46;98555.37234106216;;;3.319600213626309;79.22545204852369
71642;BME280;60657;50.122;14.468;2023-12-07T04:58:02;98552.2920865498;;;3.3516441596093713;79.05378805218585
71642;BME280;60657;50.122;14.468;2023-12-07T05:01:18;98558.84604642108;;;3.3890287632562774;79.09575036240177
71642;BME280;60657;50.122;14.468;2023-12-07T05:04:34;98560.60430591949;;;3.386358434424352;78.80773632410163
71642;BME280;60657;50.122;14.468;2023-12-07T05:07:50;98555.72094333067;;;3.4264133669031835;78.79056992446785
71642;BME280;60657;50.122;14.468;2023-12-07T05:11:06;98566.27932471505;;;3.3970397497520395;78.99084458686198
71642;BME280;60657;50.122;14.468;2023-12-07T05:14:22;98557.26197611452;;;3.362325474937059;79.11100938429847
71642;BME280;60657;50.122;14.468;2023-12-07T05:17:38;98563.5967614473;;;3.2955672541390086;79.36087586785688
71642;BME280;60657;50.122;14.468;2023-12-07T05:20:54;98562.27549509809;;;3.445105668726633;79.10337987335012
71642;BME280;60657;50.122;14.468;2023-12-07T05:24:10;98573.80034692412;;;3.4344243533989456;78.93553063248646
71642;BME280;60657;50.122;14.468;2023-12-07T05:27:26;98571.16192143403;;;3.3810177767605083;79.20447089341573
71642;BME280;60657;50.122;14.468;2023-12-07T05:30:42;98568.96041362363;;;3.4477759975585585;78.85351338979171
71642;BME280;60657;50.122;14.468;2023-12-07T05:33:58;98572.08527686552;;;3.386358434424352;78.83634699015794
71642;BME280;60657;50.122;14.468;2023-12-07T05:37:14;98575.60224932308;;;3.4931715877012266;78.89166094453346
71642;BME280;60657;50.122;14.468;2023-12-07T05:40:30;98569.09013651797;;;3.5145342183566015;78.65896086060883
71642;BME280;60657;50.122;14.468;2023-12-07T05:43:46;98575.15375851495;;;3.5946440833142574;78.50064850843061
71642;BME280;60657;50.122;14.468;2023-12-07T05:47:02;98587.21533876205;;;3.5145342183566015;78.46440833142596
71642;BME280;60657;50.122;14.468;2023-12-07T05:50:17;98584.62104098027;;;3.4477759975585585;78.69710841535057
71642;BME280;60657;50.122;14.468;2023-12-07T05:53:33;98585.32557086245;;;3.4264133669031835;78.69520103761349
71642;BME280;60657;50.122;14.468;2023-12-07T05:56:49;98595.179445494;;;3.402380407415883;79.01945525291829
71642;BME280;60657;50.122;14.468;2023-12-07T06:00:06;98587.78903638278;;;3.4637979705500896;78.92217898832685
71642;BME280;60657;50.122;14.468;2023-12-07T06:03:24;98596.1472006707;;;3.4851606012054646;78.87640192263676
71642;BME280;60657;50.122;14.468;2023-12-07T06:06:40;98591.96806796674;;;3.4905012588693083;78.72571908140688
71642;BME280;60657;50.122;14.468;2023-12-07T06:09:58;98592.75997127293;;;3.4504463263904768;78.61318379491874
71642;BME280;60657;50.122;14.468;2023-12-07T06:13:14;98591.96806796674;;;3.5065232318608395;78.7829404135195
71642;BME280;60657;50.122;14.468;2023-12-07T06:16:30;98597.90636875051;;;3.546578164339664;78.56549935149157
71642;BME280;60657;50.122;14.468;2023-12-07T06:19:46;98599.70859760669;;;3.575951781490808;78.39383535515374
71642;BME280;60657;50.122;14.468;2023-12-07T06:23:01;98595.70267525672;;;3.6106660563057886;78.443427176318
71642;BME280;60657;50.122;14.468;2023-12-07T06:26:18;98592.18644717954;;;3.5358968490119764;78.53307392996109
71642;BME280;60657;50.122;14.468;2023-12-07T06:29:34;98599.66515894602;;;3.567940794995039;78.40909437705044
71642;BME280;60657;50.122;14.468;2023-12-07T06:32:49;98605.12185003376;;;3.445105668726633;78.29846646829938
71642;BME280;60657;50.122;14.468;2023-12-07T06:36:06;98610.92924700408;;;3.495841916533152;78.58457312886244
71642;BME280;60657;50.122;14.468;2023-12-07T06:39:22;98610.84069797015;;;3.4611276417181642;78.73716334782941
71642;BME280;60657;50.122;14.468;2023-12-07T06:42:37;98611.72098132949;;;3.487830930037383;78.86686503395133
71642;BME280;60657;50.122;14.468;2023-12-07T06:45:53;98619.15631848364;;;3.5305561913481327;78.98512245365072
71642;BME280;60657;50.122;14.468;2023-12-07T06:49:09;98622.58892848382;;;3.562600137331195;78.71618219272145
71642;BME280;60657;50.122;14.468;2023-12-07T06:52:25;98621.66440296089;;;3.5358968490119764;78.92027161058977
71642;BME280;60657;50.122;14.468;2023-12-07T06:55:41;98626.45821571023;;;3.495841916533152;79.29411764705883
71642;BME280;60657;50.122;14.468;2023-12-07T06:58:57;98635.06863823459;;;3.3463035019455276;79.61074235141527
71642;BME280;60657;50.122;14.468;2023-12-07T07:02:13;98627.20476918021;;;3.509193560692758;79.46768902113375
71642;BME280;60657;50.122;14.468;2023-12-07T07:05:29;98636.44704599786;;;3.5278858625162144;79.28648813611048
71642;BME280;60657;50.122;14.468;2023-12-07T07:08:45;98629.89181177902;;;3.517204547188527;79.15869382772564
71642;BME280;60657;50.122;14.468;2023-12-07T07:12:01;98632.35560682036;;;3.538567177843902;79.4161898222324
71642;BME280;60657;50.122;14.468;2023-12-07T07:15:22;98630.99339340185;;;3.605325398641945;79.15678644998856
71642;BME280;60657;50.122;14.468;2023-12-07T07:18:38;98643.31424161883;;;3.613336385137714;79.01564049744411
71642;BME280;60657;50.122;14.468;2023-12-07T07:21:55;98638.47408013977;;;3.6533913176165385;79.03852903028915
71642;BME280;60657;50.122;14.468;2023-12-07T07:25:10;98640.14628621883;;;3.65072098878462;78.96604867627985
71642;BME280;60657;50.122;14.468;2023-12-07T07:28:26;98638.38589605356;;;3.58396276798657;79.00610360875868
71642;BME280;60657;50.122;14.468;2023-12-07T07:31:42;98643.35849166366;;;3.621347371633476;79.19111924925612
71642;BME280;60657;50.122;14.468;2023-12-07T07:34:58;98648.3312466739;;;3.6480506599526947;79.12626840619517
71642;BME280;60657;50.122;14.468;2023-12-07T07:38:14;98646.70311339317;;;3.6320286869611635;79.06523231860838
71642;BME280;60657;50.122;14.468;2023-12-07T07:41:32;98645.03079444834;;;3.6400396734569327;79.32082093537804
71642;BME280;60657;50.122;14.468;2023-12-07T07:44:48;98657.30766258588;;;3.658731975280382;79.25597009231709
71642;BME280;60657;50.122;14.468;2023-12-07T07:48:04;98656.03304963543;;;3.7708857862211005;78.9717708094911
71642;BME280;60657;50.122;14.468;2023-12-07T07:51:20;98649.64902141488;;;3.8136110475318503;78.6646829938201
71642;BME280;60657;50.122;14.468;2023-12-07T07:54:35;98657.9235160623;;;3.818951705195694;78.78675516899366
71642;BME280;60657;50.122;14.468;2023-12-07T07:57:51;98658.139542634;;;3.8723582818341313;78.3842984664683
71642;BME280;60657;50.122;14.468;2023-12-07T08:01:07;98661.44101206728;;;3.891050583657588;78.48348210879682
71642;BME280;60657;50.122;14.468;2023-12-07T08:04:23;98670.42291146507;;;3.891050583657588;78.32898451209277
71642;BME280;60657;50.122;14.468;2023-12-07T08:07:44;98661.61254786392;;;3.9311055161364123;78.14206149385825
71642;BME280;60657;50.122;14.468;2023-12-07T08:11:00;98656.76640915741;;;3.992523079270619;78.81345845731289
71642;BME280;60657;50.122;14.468;2023-12-07T08:14:16;98663.41249807684;;;3.992523079270619;78.03334096284428
71642;BME280;60657;50.122;14.468;2023-12-07T08:17:31;98663.68980019989;;;3.8376440070191506;78.41100175478752
71642;BME280;60657;50.122;14.468;2023-12-07T08:20:51;98662.2340671451;;;3.8563363088426;78.2660410467689
71642;BME280;60657;50.122;14.468;2023-12-07T08:24:07;98664.52599815963;;;3.832303349355307;78.60173952849622
71642;BME280;60657;50.122;14.468;2023-12-07T08:27:22;98666.50085676264;;;3.9417868314641;78.47966735332265
71642;BME280;60657;50.122;14.468;2023-12-07T08:30:38;98668.13022466286;;;3.949797817959869;78.33279926756695
71642;BME280;60657;50.122;14.468;2023-12-07T08:33:55;98671.56066697113;;;3.995193408102537;77.96658274204623
71642;BME280;60657;50.122;14.468;2023-12-07T08:37:11;98669.80256810477;;;3.9524681467917873;78.30991073472191
71642;BME280;60657;50.122;14.468;2023-12-07T08:40:27;98661.22473388712;;;3.877698939497975;78.53879606317236
71642;BME280;60657;50.122;14.468;2023-12-07T08:43:42;98672.58215408724;;;3.8136110475318503;78.8401617456321
71642;BME280;60657;50.122;14.468;2023-12-07T08:46:58;98675.30995826845;;;3.8803692683299005;78.3537804226749
71642;BME280;60657;50.122;14.468;2023-12-07T08:50:14;98677.0694514221;;;3.915083543144881;78.31754024567026
71642;BME280;60657;50.122;14.468;2023-12-07T08:53:30;98677.81878198573;;;3.89906157015335;78.39383535515374
71642;BME280;60657;50.122;14.468;2023-12-07T08:56:46;98681.56102456951;;;3.8136110475318503;78.84969863431753
71642;BME280;60657;50.122;14.468;2023-12-07T09:00:02;98685.74298189794;;;3.8082703898680066;78.90882734416724
71642;BME280;60657;50.122;14.468;2023-12-07T09:03:20;98687.63614861465;;;3.9097428854810374;78.83062485694667
71642;BME280;60657;50.122;14.468;2023-12-07T09:06:36;98691.11278378216;;;3.9604791332875564;78.44151979858091
71642;BME280;60657;50.122;14.468;2023-12-07T09:09:52;98692.1227923613;;;3.9978637369344625;78.46822308690012
71642;BME280;60657;50.122;14.468;2023-12-07T09:13:07;98697.67287084756;;;3.9631494621194747;78.46631570916304
71642;BME280;60657;50.122;14.468;2023-12-07T09:16:23;98696.83645515706;;;3.8750286106660567;78.5025558861677
71642;BME280;60657;50.122;14.468;2023-12-07T09:19:39;98694.15137096334;;;3.8803692683299005;78.91645685511558
71642;BME280;60657;50.122;14.468;2023-12-07T09:22:55;98685.03911588986;;;3.8376440070191506;78.91836423285267
71642;BME280;60657;50.122;14.468;2023-12-07T09:26:11;98696.70475564686;;;3.861676966506444;78.64370183871213
71642;BME280;60657;50.122;14.468;2023-12-07T09:29:27;98693.57828394925;;;3.9765011062790876;79.04043640802625
71642;BME280;60657;50.122;14.468;2023-12-07T09:32:43;98688.60371816675;;;3.9684901197833184;79.15678644998856
71642;BME280;60657;50.122;14.468;2023-12-07T09:35:59;98697.9772218629;;;4.067292286564431;78.9145494773785
71642;BME280;60657;50.122;14.468;2023-12-07T09:39:17;98696.56225388152;;;4.096665903715575;78.48538948653392
71642;BME280;60657;50.122;14.468;2023-12-07T09:42:33;98688.32740914375;;;4.102006561379419;78.41863126573587
71642;BME280;60657;50.122;14.468;2023-12-07T09:45:49;98699.0284589599;;;4.150072480354012;78.53116655222401
71642;BME280;60657;50.122;14.468;2023-12-07T09:49:09;98692.59349869641;;;4.192797741664762;78.26794842450599
71642;BME280;60657;50.122;14.468;2023-12-07T09:52:25;98697.4837983641;;;4.152742809185931;78.32326237888151
71642;BME280;60657;50.122;14.468;2023-12-07T09:55:41;98685.98831323338;;;4.171435111009387;78.09819180590524
71642;BME280;60657;50.122;14.468;2023-12-07T09:58:57;98685.48742709978;;;4.272907606622418;77.57175555046922
71642;BME280;60657;50.122;14.468;2023-12-07T10:02:14;98685.48742709978;;;4.267566948958574;77.46494239719235
71642;BME280;60657;50.122;14.468;2023-12-07T10:05:30;98685.36230719538;;;4.214160372320137;77.20744640268559
71642;BME280;60657;50.122;14.468;2023-12-07T10:08:46;98689.75102942236;;;4.320973525597012;77.35049973296712
71642;BME280;60657;50.122;14.468;2023-12-07T10:12:02;98679.84180067918;;;4.307621881437399;77.32951857785916
71642;BME280;60657;50.122;14.468;2023-12-07T10:15:21;98684.73431816876;;;4.275577935454336;77.4267948424506
71642;BME280;60657;50.122;14.468;2023-12-07T10:18:38;98674.27644206253;;;4.320973525597012;77.1616693369955
71642;BME280;60657;50.122;14.468;2023-12-07T10:21:54;98681.47267406134;;;4.328984512092774;77.60227359426261
71642;BME280;60657;50.122;14.468;2023-12-07T10:25:10;98676.86557107652;;;4.446478980697336;77.17120622568093
71642;BME280;60657;50.122;14.468;2023-12-07T10:28:26;98677.41597900608;;;4.328984512092774;77.676661326009
71642;BME280;60657;50.122;14.468;2023-12-07T10:31:42;98684.02214108988;;;4.315632867933168;77.46684977492943
71642;BME280;60657;50.122;14.468;2023-12-07T10:34:58;98687.20121354655;;;4.318303196765086;77.852140077821
71642;BME280;60657;50.122;14.468;2023-12-07T10:38:13;98685.73543271991;;;4.353017471580074;77.5145342183566
71642;BME280;60657;50.122;14.468;2023-12-07T10:41:29;98671.93078828492;;;4.467841611352711;77.08537422751202
71642;BME280;60657;50.122;14.468;2023-12-07T10:44:45;98680.20947857152;;;4.4224460212100425;76.51125352864881
71642;BME280;60657;50.122;14.468;2023-12-07T10:48:10;98679.88298489417;;;4.320973525597012;76.43114366369116
71642;BME280;60657;50.122;14.468;2023-12-07T10:51:28;98679.41394293177;;;4.465171282520792;75.99053940642405
71642;BME280;60657;50.122;14.468;2023-12-07T10:54:50;98667.91228106324;;;4.47585259784848;75.8188754100862
71642;BME280;60657;50.122;14.468;2023-12-07T10:58:19;98676.2311750273;;;4.515907530327304;75.7769130998703
71642;BME280;60657;50.122;14.468;2023-12-07T11:01:38;98673.92304275338;;;4.534599832150761;75.35156786449988
71642;BME280;60657;50.122;14.468;2023-12-07T11:04:56;98688.20258187254;;;4.417105363546199;75.9981689173724
71642;BME280;60657;50.122;14.468;2023-12-07T11:08:15;98670.73792595277;;;4.668116273746854;75.26573586633097
71642;BME280;60657;50.122;14.468;2023-12-07T11:11:39;98669.14499220058;;;4.641412985427635;74.72785534447242
71642;BME280;60657;50.122;14.468;2023-12-07T11:18:41;98674.35491883842;;;4.68146791790646;74.19951171129931
71642;BME280;60657;50.122;14.468;2023-12-07T11:22:05;98662.8093841252;;;4.750896467536428;73.85236896314946
71642;BME280;60657;50.122;14.468;2023-12-07T11:25:22;98669.22336443239;;;4.5986877241168855;73.55863279163806
71642;BME280;60657;50.122;14.468;2023-12-07T11:28:38;98671.53429898793;;;4.59601739528496;73.85809109636072
71642;BME280;60657;50.122;14.468;2023-12-07T11:31:55;98662.89709773267;;;4.462500953688867;74.50087739375905
71642;BME280;60657;50.122;14.468;2023-12-07T11:35:12;98667.23619979247;;;4.574654764629585;74.2452887769894
71642;BME280;60657;50.122;14.468;2023-12-07T11:38:28;98672.4095794905;;;4.636072327763792;73.7875181200885
71642;BME280;60657;50.122;14.468;2023-12-07T11:41:44;98670.8949366833;;;4.68146791790646;73.86572060730907
71642;BME280;60657;50.122;14.468;2023-12-07T11:45:05;98667.82361381728;;;4.7375448233768225;73.07225146868086
71642;BME280;60657;50.122;14.468;2023-12-07T11:48:22;98667.71071753297;;;4.451819638361179;74.29106584267949
71642;BME280;60657;50.122;14.468;2023-12-07T11:51:38;98672.13173433502;;;4.571984435797667;73.76462958724346
71642;BME280;60657;50.122;14.468;2023-12-07T11:54:54;98673.12685738625;;;4.593347066453042;73.98970016021973
71642;BME280;60657;50.122;14.468;2023-12-07T11:58:11;98675.07393735186;;;4.70550087739376;73.45754177157244
71642;BME280;60657;50.122;14.468;2023-12-07T12:01:28;98666.15218792118;;;4.70550087739376;73.48233768215458